Time;durP1;ratioP1;P1;durP2;ratioP2;P2;SDS_P1;SDS_P2;PMS_P1;PMS_P2;Temp;Humidity;BMP_temperature;BMP_pressure;BME280_temperature;BME280_humidity;BME280_pressure;Samples;Min_cycle;Max_cycle;Signal;HPM_P1;HPM_P2
2022/12/04 00:01:45;;;;;;;;;26.25;23.50;;;;;7.49;61.14;100972.81;4994255;28;45679;-74
2022/12/04 00:04:10;;;;;;;;;33.50;26.75;;;;;7.59;60.75;100983.88;4994395;28;46296;-75
2022/12/04 00:06:35;;;;;;;;;21.50;19.00;;;;;7.61;60.41;100983.81;4994412;28;45419;-75
2022/12/04 00:09:01;;;;;;;;;33.50;28.50;;;;;7.37;61.18;100984.78;4994419;28;45464;-74
2022/12/04 00:11:30;;;;;;;;;28.00;26.00;;;;;7.27;61.84;100982.59;4994410;28;45578;-75
2022/12/04 00:13:56;;;;;;;;;24.25;21.50;;;;;7.47;61.40;100984.41;4994171;28;46193;-76
2022/12/04 00:16:24;;;;;;;;;21.25;19.75;;;;;7.51;61.05;100983.34;4994791;28;45482;-76
2022/12/04 00:18:49;;;;;;;;;25.75;25.75;;;;;7.56;60.66;100984.03;4995510;28;45460;-77
2022/12/04 00:21:16;;;;;;;;;29.25;29.00;;;;;7.48;60.42;100938.38;4995128;28;45443;-77
2022/12/04 00:23:42;;;;;;;;;27.00;24.50;;;;;8.01;59.63;100980.25;4995403;28;46125;-77
2022/12/04 00:26:10;;;;;;;;;24.75;23.00;;;;;7.72;59.71;100970.91;4995128;28;45516;-77
2022/12/04 00:28:36;;;;;;;;;19.50;16.00;;;;;7.57;60.39;100976.00;4994810;28;45392;-77
2022/12/04 00:31:07;;;;;;;;;17.25;10.50;;;;;7.36;60.92;100976.91;4995131;28;45434;-75
2022/12/04 00:33:33;;;;;;;;;21.00;20.00;;;;;7.55;60.42;100979.63;4995151;28;45377;-75
2022/12/04 00:36:00;;;;;;;;;33.25;29.75;;;;;7.46;61.04;100950.81;4977394;28;45400;-76
2022/12/04 00:38:26;;;;;;;;;26.50;21.50;;;;;7.56;60.74;100976.91;4994038;28;45293;-77
2022/12/04 00:40:52;;;;;;;;;26.75;23.25;;;;;7.57;60.94;100983.94;4994526;28;45331;-77
2022/12/04 00:43:18;;;;;;;;;21.25;19.75;;;;;7.05;60.65;100886.19;4977025;28;46232;-75
2022/12/04 00:45:44;;;;;;;;;27.25;21.50;;;;;7.83;60.83;100973.13;4995183;28;45346;-76
2022/12/04 00:48:09;;;;;;;;;22.00;19.75;;;;;7.71;60.37;100977.19;4995207;28;45478;-76
2022/12/04 00:50:35;;;;;;;;;32.00;26.00;;;;;7.78;59.80;100969.81;4994449;28;45543;-77
2022/12/04 00:53:00;;;;;;;;;10.00;9.50;;;;;7.32;60.51;100923.09;4994864;28;46031;-76
2022/12/04 00:55:25;;;;;;;;;33.50;25.75;;;;;7.14;60.87;100927.38;4995304;28;45333;-77
2022/12/04 00:57:51;;;;;;;;;28.50;26.00;;;;;7.34;62.00;100963.69;4976285;28;45514;-78
2022/12/04 01:00:17;;;;;;;;;22.50;20.25;;;;;7.34;61.02;100966.34;4994251;28;45427;-77
2022/12/04 01:02:43;;;;;;;;;30.25;27.25;;;;;7.22;61.71;100961.53;4994813;28;46300;-77
2022/12/04 01:05:09;;;;;;;;;27.50;24.75;;;;;7.16;61.71;100967.13;4994710;28;45446;-75
2022/12/04 01:07:34;;;;;;;;;27.25;22.75;;;;;7.16;62.06;100964.47;4995484;28;45362;-77
2022/12/04 01:10:00;;;;;;;;;27.25;25.75;;;;;7.32;62.11;100962.03;4995096;28;45589;-77
2022/12/04 01:12:25;;;;;;;;;30.75;27.00;;;;;7.54;60.47;100965.50;4994285;28;45386;-75
2022/12/04 01:14:52;;;;;;;;;29.75;24.75;;;;;7.49;61.36;100956.88;4994900;28;45422;-77
2022/12/04 01:17:18;;;;;;;;;33.25;29.00;;;;;7.25;61.13;100956.13;4995145;28;45722;-76
2022/12/04 01:19:43;;;;;;;;;31.75;29.00;;;;;7.18;61.63;100962.59;4994905;28;45515;-76
2022/12/04 01:22:09;;;;;;;;;26.50;23.00;;;;;7.39;61.32;100963.50;4994886;28;46047;-76
2022/12/04 01:24:34;;;;;;;;;27.25;20.50;;;;;7.60;60.63;100963.50;4994757;28;45478;-76
2022/12/04 01:26:59;;;;;;;;;31.50;26.50;;;;;7.73;60.17;100957.59;4977141;28;45436;-77
2022/12/04 01:29:25;;;;;;;;;28.50;27.00;;;;;7.73;60.37;100960.25;4977236;28;45528;-76
2022/12/04 01:31:50;;;;;;;;;24.25;20.50;;;;;7.76;60.67;100961.91;4994645;28;45424;-77
2022/12/04 01:34:15;;;;;;;;;23.00;23.00;;;;;7.80;60.37;100954.66;4994725;28;45373;-77
2022/12/04 01:36:41;;;;;;;;;30.00;27.25;;;;;7.46;60.48;100956.97;4976889;28;45381;-76
2022/12/04 01:39:06;;;;;;;;;30.00;24.75;;;;;7.61;60.35;100960.75;4994800;28;45310;-75
2022/12/04 01:41:31;;;;;;;;;24.50;19.75;;;;;7.80;60.66;100954.66;4994676;28;45355;-77
2022/12/04 01:44:24;;;;;;;;;29.00;24.00;;;;;7.91;59.71;100944.44;4995112;28;45344;-76
2022/12/04 01:46:51;;;;;;;;;28.75;23.00;;;;;8.08;59.77;100941.88;4994972;28;45599;-77
2022/12/04 01:49:23;;;;;;;;;33.25;27.25;;;;;7.73;59.89;100946.97;4994558;28;45498;-76
2022/12/04 01:51:54;;;;;;;;;27.00;22.00;;;;;7.55;59.77;100923.88;4996537;28;46416;-77
2022/12/04 01:54:27;;;;;;;;;32.25;26.75;;;;;8.07;59.69;100958.75;4998004;28;45245;-76
2022/12/04 01:56:58;;;;;;;;;23.75;20.50;;;;;8.04;59.46;100952.69;4979903;28;45268;-77
2022/12/04 01:59:30;;;;;;;;;28.50;27.00;;;;;7.84;60.26;100961.56;4997663;28;45335;-76
2022/12/04 02:02:02;;;;;;;;;29.00;24.00;;;;;7.85;60.33;100963.28;4997392;28;47135;-77
2022/12/04 02:04:27;;;;;;;;;28.50;24.75;;;;;7.90;59.48;100961.28;4997579;28;45542;-77
2022/12/04 02:06:53;;;;;;;;;30.75;25.50;;;;;7.68;60.55;100969.31;4997521;28;45423;-77
2022/12/04 02:09:22;;;;;;;;;31.25;28.50;;;;;7.77;60.27;100955.66;4997551;28;45384;-76
2022/12/04 02:12:02;;;;;;;;;33.25;28.25;;;;;7.77;60.42;100960.13;4997486;28;45368;-77
2022/12/04 02:14:46;;;;;;;;;30.00;27.00;;;;;7.84;59.60;100956.25;4997426;28;45520;-77
2022/12/04 02:17:27;;;;;;;;;21.00;17.00;;;;;7.95;59.67;100959.31;4997647;28;45451;-77
2022/12/04 02:20:17;;;;;;;;;24.75;20.50;;;;;7.85;59.79;100955.31;4997468;28;45411;-77
2022/12/04 02:23:00;;;;;;;;;30.75;29.00;;;;;8.13;59.45;100954.09;4979636;28;45755;-77
2022/12/04 02:26:05;;;;;;;;;25.00;22.25;;;;;8.13;59.73;100959.41;4997360;28;45387;-77
2022/12/04 02:29:19;;;;;;;;;30.25;29.25;;;;;8.15;58.86;100957.53;4980330;28;45408;-76
2022/12/04 02:32:01;;;;;;;;;35.00;30.25;;;;;8.10;60.00;100960.41;4996913;28;45570;-77
2022/12/04 02:35:02;;;;;;;;;42.00;31.75;;;;;7.91;59.47;100953.25;4997493;28;46706;-77
2022/12/04 02:37:39;;;;;;;;;25.25;24.00;;;;;8.08;59.68;100960.47;4899376;29;45607;-76
2022/12/04 02:40:10;;;;;;;;;30.75;25.75;;;;;8.13;59.00;100967.38;4899339;29;45426;-77
2022/12/04 02:42:55;;;;;;;;;32.50;27.75;;;;;8.11;59.39;100966.56;4899979;29;45407;-77
2022/12/04 02:45:28;;;;;;;;;29.00;25.75;;;;;8.32;59.15;100962.91;4898747;29;46354;-77
2022/12/04 02:47:55;;;;;;;;;28.75;23.50;;;;;8.05;59.35;100960.59;4897844;29;45467;-78
2022/12/04 02:50:23;;;;;;;;;35.25;29.25;;;;;8.11;59.72;100955.94;4898020;29;45502;-78
2022/12/04 02:52:53;;;;;;;;;25.00;17.50;;;;;8.20;59.48;100958.19;4898157;29;45392;-78
2022/12/04 02:55:24;;;;;;;;;27.50;27.50;;;;;7.80;59.28;100896.22;4897761;29;46404;-78
2022/12/04 02:57:58;;;;;;;;;24.25;23.00;;;;;8.28;59.00;100949.84;4897822;29;45454;-76
2022/12/04 03:00:24;;;;;;;;;31.75;29.00;;;;;7.88;59.31;100887.00;4897982;29;45486;-77
2022/12/04 03:03:00;;;;;;;;;35.00;28.25;;;;;8.35;58.57;100962.78;4896865;29;45405;-76
2022/12/04 03:05:37;;;;;;;;;32.50;26.25;;;;;8.40;59.03;100959.91;4897689;29;45710;-76
2022/12/04 03:08:08;;;;;;;;;36.75;30.50;;;;;8.14;59.57;100958.44;4897523;29;45488;-76
2022/12/04 03:10:40;;;;;;;;;29.00;23.75;;;;;8.37;59.03;100966.22;4897466;29;45457;-77
2022/12/04 03:13:22;;;;;;;;;35.00;30.00;;;;;8.44;59.09;100957.97;4905346;28;45395;-76
2022/12/04 03:15:59;;;;;;;;;30.75;26.75;;;;;7.70;58.92;100830.25;4978744;28;46378;-77
2022/12/04 03:19:03;;;;;;;;;28.75;25.75;;;;;8.33;58.97;100951.38;4996277;28;45425;-77
2022/12/04 03:21:35;;;;;;;;;25.75;25.25;;;;;7.70;59.92;100891.31;4983303;28;45407;-77
2022/12/04 03:24:23;;;;;;;;;32.50;27.25;;;;;7.84;60.27;100942.97;4996467;28;45359;-77
2022/12/04 03:27:03;;;;;;;;;34.00;31.00;;;;;7.74;60.91;100948.69;4996269;28;46584;-77
2022/12/04 03:29:38;;;;;;;;;42.50;34.25;;;;;7.86;60.70;100938.47;4996560;28;45416;-76
2022/12/04 03:32:14;;;;;;;;;29.50;29.00;;;;;7.92;59.78;100895.66;4978822;28;45411;-77
2022/12/04 03:34:55;;;;;;;;;32.00;28.75;;;;;8.03;59.89;100927.94;4996223;28;45351;-77
2022/12/04 03:37:32;;;;;;;;;33.50;26.00;;;;;7.93;60.36;100931.94;4995957;28;45426;-77
2022/12/04 03:40:02;;;;;;;;;30.25;25.75;;;;;8.02;60.16;100936.81;4996447;28;45343;-77
2022/12/04 03:42:38;;;;;;;;;34.25;28.75;;;;;8.06;60.02;100927.78;4996627;28;45400;-78
2022/12/04 03:45:19;;;;;;;;;34.25;30.50;;;;;8.09;60.42;100924.97;4996149;28;45559;-78
2022/12/04 03:47:52;;;;;;;;;35.00;28.00;;;;;8.09;60.02;100917.00;4996186;28;46430;-77
2022/12/04 03:50:40;;;;;;;;;22.00;20.00;;;;;7.93;60.15;100923.97;4996271;28;45363;-77
2022/12/04 03:53:06;;;;;;;;;30.25;26.25;;;;;8.12;59.95;100923.13;4996488;28;45493;-78
2022/12/04 03:55:42;;;;;;;;;30.50;27.25;;;;;7.96;60.23;100921.16;4978250;28;45511;-77
2022/12/04 03:58:15;;;;;;;;;33.50;31.00;;;;;7.80;60.78;100915.69;4995857;28;45386;-77
2022/12/04 04:00:42;;;;;;;;;38.25;29.75;;;;;8.00;60.72;100908.59;4996017;28;45191;-77
2022/12/04 04:03:19;;;;;;;;;29.25;29.25;;;;;8.01;60.76;100905.03;4995946;28;45489;-77
2022/12/04 04:05:49;;;;;;;;;25.50;24.50;;;;;8.14;60.43;100897.31;4994913;28;45295;-77
2022/12/04 04:08:25;;;;;;;;;30.75;30.75;;;;;8.27;59.68;100887.00;4995243;28;45347;-77
2022/12/04 04:10:54;;;;;;;;;38.25;34.50;;;;;7.90;59.98;100884.25;4995478;28;45432;-77
2022/12/04 04:24:46;;;;;;;;;36.00;32.00;;;;;7.95;60.25;100857.47;4995680;28;45543;-77
2022/12/04 04:27:12;;;;;;;;;32.75;31.50;;;;;7.75;60.68;100857.47;4995558;28;45447;-76
2022/12/04 04:29:38;;;;;;;;;27.25;21.75;;;;;7.89;60.77;100848.00;4995413;28;47215;-77
2022/12/04 04:32:13;;;;;;;;;27.00;20.50;;;;;7.88;60.16;100840.97;4995867;28;45378;-76
2022/12/04 04:34:57;;;;;;;;;31.50;27.50;;;;;7.65;60.81;100847.34;4995539;28;45341;-76
2022/12/04 04:37:38;;;;;;;;;34.75;30.50;;;;;7.82;61.24;100854.53;4995179;28;45304;-77
2022/12/04 04:40:17;;;;;;;;;35.00;31.00;;;;;7.60;61.19;100859.94;4995350;28;45453;-77
2022/12/04 04:42:50;;;;;;;;;36.50;24.75;;;;;7.77;60.52;100865.34;4995288;28;45399;-77
2022/12/04 04:45:34;;;;;;;;;40.75;33.00;;;;;8.02;60.94;100867.75;4995426;28;45411;-77
2022/12/04 04:48:12;;;;;;;;;19.25;14.00;;;;;8.08;60.12;100869.25;4995424;28;45318;-76
2022/12/04 04:50:39;;;;;;;;;36.25;31.25;;;;;8.13;59.80;100842.47;4995098;28;46097;-76
2022/12/04 04:53:10;;;;;;;;;33.75;30.50;;;;;8.20;59.26;100851.88;4977569;28;45559;-76
2022/12/04 04:55:37;;;;;;;;;38.75;31.25;;;;;8.23;59.13;100862.34;4995065;28;45324;-76
2022/12/04 04:58:08;;;;;;;;;23.00;20.75;;;;;8.05;59.79;100824.25;4995371;28;45358;-77
2022/12/04 05:00:33;;;;;;;;;38.50;33.50;;;;;7.97;60.45;100856.47;4994978;28;45463;-77
2022/12/04 05:02:59;;;;;;;;;43.75;31.50;;;;;8.01;60.01;100865.16;4994976;28;45320;-76
2022/12/04 05:05:24;;;;;;;;;39.75;31.75;;;;;8.14;59.57;100863.66;4995017;28;45341;-77
2022/12/04 05:07:50;;;;;;;;;28.75;25.75;;;;;8.02;59.50;100873.06;4995049;28;45184;-76
2022/12/04 05:10:15;;;;;;;;;30.50;24.75;;;;;8.03;60.17;100840.25;4994958;28;45295;-76
2022/12/04 05:12:41;;;;;;;;;37.25;32.00;;;;;8.08;60.03;100861.28;4995065;28;45341;-77
2022/12/04 05:15:07;;;;;;;;;39.75;29.50;;;;;8.31;60.00;100868.16;4994936;28;45750;-77
2022/12/04 05:17:34;;;;;;;;;29.75;27.50;;;;;8.24;59.63;100869.41;4995095;28;45439;-76
2022/12/04 05:19:59;;;;;;;;;30.75;28.00;;;;;8.24;59.85;100870.25;4994624;28;45408;-77
2022/12/04 05:22:29;;;;;;;;;34.50;30.00;;;;;8.30;59.11;100873.56;4994680;28;45484;-76
2022/12/04 05:24:54;;;;;;;;;29.50;25.50;;;;;8.36;59.32;100874.13;4995224;28;45421;-76
2022/12/04 05:27:21;;;;;;;;;25.50;20.75;;;;;8.24;60.03;100869.41;4997735;28;45469;-77
2022/12/04 05:29:46;;;;;;;;;30.00;28.25;;;;;7.86;59.99;100806.50;4980615;28;45765;-77
2022/12/04 05:32:12;;;;;;;;;22.00;19.00;;;;;7.98;60.61;100863.50;4998894;28;45299;-76
2022/12/04 05:34:37;;;;;;;;;29.25;24.75;;;;;7.65;60.46;100787.16;4998870;28;45463;-76
2022/12/04 05:37:03;;;;;;;;;41.00;35.75;;;;;8.05;60.58;100861.44;4999249;28;45528;-77
2022/12/04 05:39:28;;;;;;;;;22.00;17.25;;;;;8.16;59.94;100871.56;4981585;28;45434;-77
2022/12/04 05:41:54;;;;;;;;;31.50;27.25;;;;;8.17;59.75;100870.63;4999931;28;45389;-77
2022/12/04 05:44:19;;;;;;;;;35.00;32.25;;;;;8.14;60.10;100868.09;5000220;28;45372;-76
2022/12/04 05:46:44;;;;;;;;;31.75;30.00;;;;;7.66;59.84;100788.84;4998382;28;45600;-76
2022/12/04 05:49:10;;;;;;;;;25.25;21.50;;;;;8.14;60.22;100882.25;4997517;28;45372;-76
2022/12/04 05:51:35;;;;;;;;;32.50;26.75;;;;;8.28;60.14;100897.56;4997873;28;45760;-76
2022/12/04 05:54:00;;;;;;;;;41.00;30.75;;;;;8.33;59.57;100906.19;4980283;28;45470;-77
2022/12/04 05:56:26;;;;;;;;;33.75;30.00;;;;;8.53;59.79;100907.03;4997676;28;45490;-77
2022/12/04 05:58:51;;;;;;;;;36.50;26.75;;;;;8.69;58.81;100913.34;4997159;28;46032;-77
2022/12/04 06:01:20;;;;;;;;;37.75;28.00;;;;;8.67;59.09;100909.06;4997852;28;45369;-77
2022/12/04 06:03:45;;;;;;;;;30.75;30.50;;;;;8.63;59.07;100903.00;4997620;28;45408;-77
2022/12/04 06:06:16;;;;;;;;;28.75;25.25;;;;;8.56;59.51;100912.22;4997446;28;45275;-77
2022/12/04 06:08:41;;;;;;;;;29.50;25.50;;;;;8.48;59.97;100887.81;4997580;28;45443;-76
2022/12/04 06:11:27;;;;;;;;;35.00;31.50;;;;;8.73;59.13;100914.94;4979858;28;45447;-76
2022/12/04 06:13:53;;;;;;;;;37.00;31.00;;;;;8.89;58.68;100909.72;4980077;28;45472;-77
2022/12/04 06:16:27;;;;;;;;;38.50;31.75;;;;;9.00;58.56;100917.16;4997762;28;45404;-77
2022/12/04 06:18:56;;;;;;;;;32.50;28.75;;;;;9.02;57.98;100925.06;4996627;28;47411;-76
2022/12/04 06:21:23;;;;;;;;;34.25;29.75;;;;;8.95;58.22;100908.56;4997558;28;45371;-77
2022/12/04 06:23:49;;;;;;;;;34.25;29.50;;;;;9.05;57.95;100908.94;4997312;28;45348;-77
2022/12/04 06:26:15;;;;;;;;;37.75;30.75;;;;;9.00;57.76;100898.53;4997082;28;45352;-77
2022/12/04 06:28:40;;;;;;;;;36.00;31.50;;;;;8.87;57.97;100900.94;4996998;28;46392;-77
2022/12/04 06:31:09;;;;;;;;;32.25;28.25;;;;;8.54;58.52;100908.78;4997259;28;45415;-77
2022/12/04 06:33:34;;;;;;;;;19.25;17.00;;;;;8.17;59.82;100894.56;4997237;28;45399;-77
2022/12/04 06:36:02;;;;;;;;;35.25;31.00;;;;;8.61;59.32;100901.34;4997215;28;45542;-78
2022/12/04 06:38:27;;;;;;;;;35.00;30.25;;;;;8.72;58.36;100875.13;4996544;28;46467;-78
2022/12/04 06:40:53;;;;;;;;;34.00;27.00;;;;;8.65;58.42;100890.50;4997017;28;45556;-77
2022/12/04 06:43:18;;;;;;;;;37.25;31.75;;;;;8.27;59.02;100847.97;4997231;28;45297;-78
2022/12/04 06:45:44;;;;;;;;;35.25;32.25;;;;;8.47;58.58;100913.50;4963223;28;45345;-78
2022/12/04 06:48:09;;;;;;;;;35.00;30.50;;;;;8.53;58.42;100899.94;4996614;28;47045;-78
2022/12/04 06:50:34;;;;;;;;;36.25;32.50;;;;;8.59;58.63;100912.06;4997055;28;45412;-77
2022/12/04 06:53:00;;;;;;;;;40.25;33.25;;;;;8.61;58.70;100920.84;4993700;28;45467;-77
2022/12/04 06:55:25;;;;;;;;;34.75;26.75;;;;;8.70;58.70;100928.34;4984515;28;45497;-77
2022/12/04 06:57:50;;;;;;;;;34.25;31.00;;;;;8.83;58.38;100914.47;4996503;28;46238;-77
2022/12/04 07:00:16;;;;;;;;;46.25;35.25;;;;;8.37;58.77;100912.22;4996805;28;45407;-77
2022/12/04 07:02:41;;;;;;;;;32.00;27.00;;;;;8.55;58.89;100895.38;4996578;28;45372;-78
2022/12/04 07:05:07;;;;;;;;;36.25;34.50;;;;;8.70;58.11;100920.38;4979041;28;45535;-78
2022/12/04 07:07:32;;;;;;;;;31.50;27.50;;;;;8.58;58.71;100920.97;4996915;28;45371;-76
2022/12/04 07:09:57;;;;;;;;;33.75;31.50;;;;;8.74;58.32;100926.41;4996651;28;45398;-76
2022/12/04 07:12:23;;;;;;;;;42.00;30.25;;;;;8.55;58.66;100918.47;4996800;28;45406;-79
2022/12/04 07:14:48;;;;;;;;;37.25;29.00;;;;;8.53;58.96;100915.00;4996492;28;45391;-78
2022/12/04 07:17:13;;;;;;;;;34.00;29.75;;;;;8.74;58.38;100921.94;4996479;28;46600;-77
2022/12/04 07:19:39;;;;;;;;;31.75;30.25;;;;;7.34;58.62;100726.63;4996476;28;45367;-77
2022/12/04 07:22:05;;;;;;;;;39.75;35.00;;;;;8.40;59.30;100934.19;4996597;28;45878;-77
2022/12/04 07:24:30;;;;;;;;;35.50;32.25;;;;;8.36;59.32;100940.56;4996543;28;45392;-77
2022/12/04 07:26:55;;;;;;;;;47.75;38.75;;;;;8.05;58.80;100843.69;4996034;28;45570;-76
2022/12/04 07:29:21;;;;;;;;;32.25;27.00;;;;;8.40;59.19;100885.47;4977639;28;45540;-77
2022/12/04 07:31:46;;;;;;;;;39.50;35.25;;;;;8.67;59.03;100935.66;4994201;28;45427;-76
2022/12/04 07:34:11;;;;;;;;;41.25;35.25;;;;;8.59;58.49;100922.72;4987386;28;45463;-77
2022/12/04 07:36:38;;;;;;;;;35.50;31.00;;;;;8.49;59.13;100934.72;4976436;28;46244;-76
2022/12/04 07:39:04;;;;;;;;;29.00;26.50;;;;;8.29;59.51;100939.16;4976443;28;45456;-76
2022/12/04 07:41:29;;;;;;;;;41.00;35.25;;;;;8.32;59.08;100936.34;4987574;28;45500;-76
2022/12/04 07:43:54;;;;;;;;;36.75;31.75;;;;;8.32;59.67;100919.53;4976490;28;45474;-77
2022/12/04 07:46:23;;;;;;;;;36.50;34.00;;;;;8.40;59.52;100928.88;4976468;28;45738;-77
2022/12/04 07:48:48;;;;;;;;;36.50;33.25;;;;;8.56;59.55;100929.03;4975766;28;45430;-76
2022/12/04 07:51:17;;;;;;;;;44.25;35.00;;;;;8.82;58.84;100934.88;4976344;28;45457;-78
2022/12/04 07:53:43;;;;;;;;;33.75;31.25;;;;;8.59;58.62;100922.72;4976287;28;45528;-77
2022/12/04 07:56:09;;;;;;;;;37.00;34.25;;;;;8.18;58.94;100886.50;4976141;28;46214;-76
2022/12/04 07:58:35;;;;;;;;;26.00;21.75;;;;;8.54;59.22;100924.72;4976084;28;45493;-77
2022/12/04 08:01:12;;;;;;;;;34.00;29.75;;;;;8.38;58.92;100866.06;4977024;28;45530;-77
2022/12/04 08:03:38;;;;;;;;;32.50;30.50;;;;;8.48;58.89;100911.75;4984724;28;45406;-76
2022/12/04 08:06:04;;;;;;;;;29.50;27.00;;;;;8.68;59.14;100911.63;4975804;28;46545;-76
2022/12/04 08:08:30;;;;;;;;;41.50;34.25;;;;;8.88;58.81;100912.44;4975782;28;45395;-77
2022/12/04 08:10:55;;;;;;;;;40.00;28.50;;;;;8.84;58.72;100921.50;4976019;28;45360;-77
2022/12/04 08:13:21;;;;;;;;;35.00;31.50;;;;;9.00;58.20;100916.28;4975979;28;45551;-76
2022/12/04 08:15:46;;;;;;;;;41.00;36.00;;;;;9.02;58.56;100920.59;4990754;28;46358;-77
2022/12/04 08:18:11;;;;;;;;;39.75;34.25;;;;;9.10;58.17;100928.22;4989287;28;45308;-76
2022/12/04 08:20:37;;;;;;;;;44.00;36.75;;;;;9.05;57.81;100904.47;4995708;28;45341;-75
2022/12/04 08:23:02;;;;;;;;;32.50;31.00;;;;;9.23;57.41;100912.47;4995568;28;45457;-77
2022/12/04 08:25:28;;;;;;;;;44.75;33.00;;;;;9.06;57.53;100900.03;4978049;28;46543;-76
2022/12/04 08:27:53;;;;;;;;;39.50;31.25;;;;;9.05;57.66;100912.44;4995525;28;45335;-76
2022/12/04 08:30:18;;;;;;;;;37.75;30.25;;;;;8.89;58.25;100916.81;4995735;28;45348;-74
2022/12/04 08:32:44;;;;;;;;;33.50;33.25;;;;;8.92;58.18;100914.00;4996138;28;45267;-77
2022/12/04 08:35:09;;;;;;;;;36.75;32.25;;;;;9.04;58.21;100917.84;4995760;28;45438;-76
2022/12/04 08:37:34;;;;;;;;;36.00;32.50;;;;;8.99;57.74;100915.44;4959739;28;45294;-76
2022/12/04 08:40:00;;;;;;;;;32.50;28.00;;;;;8.98;58.57;100924.34;4987270;28;45241;-76
2022/12/04 08:42:25;;;;;;;;;27.50;27.00;;;;;9.05;58.05;100917.78;4996674;28;45491;-77
2022/12/04 08:44:50;;;;;;;;;39.75;36.75;;;;;9.18;57.39;100926.03;4990700;28;46030;-77
2022/12/04 08:47:16;;;;;;;;;37.00;31.00;;;;;9.02;57.44;100925.91;4985712;28;45359;-77
2022/12/04 08:49:41;;;;;;;;;42.75;38.75;;;;;9.08;57.45;100925.63;4995183;28;45451;-76
2022/12/04 08:52:06;;;;;;;;;35.50;30.50;;;;;9.07;57.38;100929.22;4995216;28;45336;-76
2022/12/04 08:54:32;;;;;;;;;38.50;32.25;;;;;9.02;57.91;100930.41;4989732;28;45420;-76
2022/12/04 08:56:57;;;;;;;;;38.00;32.50;;;;;9.04;57.94;100928.50;4990778;28;45377;-77
2022/12/04 08:59:22;;;;;;;;;40.75;35.50;;;;;8.67;58.29;100936.50;4994573;28;45674;-76
2022/12/04 09:01:51;;;;;;;;;37.50;34.75;;;;;8.61;58.54;100942.13;4996046;28;45367;-76
2022/12/04 09:04:17;;;;;;;;;32.50;31.50;;;;;8.50;58.56;100920.50;4981033;28;45362;-76
2022/12/04 09:06:42;;;;;;;;;27.00;24.25;;;;;8.70;58.52;100944.31;4998233;28;45520;-77
2022/12/04 09:09:08;;;;;;;;;34.00;32.50;;;;;8.82;58.40;100918.06;4992087;28;46141;-76
2022/12/04 09:11:33;;;;;;;;;36.25;31.00;;;;;9.09;57.94;100937.97;4985301;28;45558;-76
2022/12/04 09:14:00;;;;;;;;;33.00;28.75;;;;;9.07;57.81;100929.22;4978708;28;46175;-77
2022/12/04 09:16:26;;;;;;;;;41.00;37.75;;;;;8.87;58.33;100945.31;4978568;28;45372;-76
2022/12/04 09:18:52;;;;;;;;;43.25;37.25;;;;;8.83;58.52;100936.63;4967071;28;45356;-76
2022/12/04 09:21:19;;;;;;;;;32.75;24.75;;;;;8.77;58.18;100936.06;4994458;28;45462;-75
2022/12/04 09:23:45;;;;;;;;;33.00;32.50;;;;;8.81;58.72;100887.94;4998132;28;47018;-76
2022/12/04 09:26:38;;;;;;;;;42.50;30.25;;;;;8.99;58.30;100930.53;4998281;28;45470;-76
2022/12/04 09:29:04;;;;;;;;;38.50;33.25;;;;;8.95;57.94;100935.16;4998355;28;45367;-76
2022/12/04 09:31:30;;;;;;;;;42.50;33.00;;;;;9.01;58.56;100933.97;4998423;28;45386;-76
2022/12/04 09:33:59;;;;;;;;;42.25;37.25;;;;;8.88;58.22;100897.34;4980474;28;45569;-76
2022/12/04 09:36:25;;;;;;;;;41.75;35.75;;;;;9.35;58.07;100934.94;4998043;28;45383;-76
2022/12/04 09:38:53;;;;;;;;;39.75;35.75;;;;;9.12;58.05;100920.13;4998137;28;45406;-76
2022/12/04 09:41:28;;;;;;;;;45.50;40.75;;;;;9.16;58.13;100932.34;4997899;28;45316;-76
2022/12/04 09:44:00;;;;;;;;;41.50;36.25;;;;;9.08;58.18;100930.06;4997845;28;45547;-76
2022/12/04 09:46:31;;;;;;;;;39.00;29.50;;;;;8.92;58.28;100916.66;4997529;28;45438;-76
2022/12/04 09:49:01;;;;;;;;;39.25;34.75;;;;;8.98;58.60;100942.13;4997877;28;45364;-76
2022/12/04 09:51:27;;;;;;;;;44.00;36.00;;;;;8.92;58.44;100919.31;4998025;28;45429;-76
2022/12/04 09:54:08;;;;;;;;;31.75;31.75;;;;;9.15;58.32;100941.28;4996441;28;47228;-77
2022/12/04 09:56:34;;;;;;;;;35.50;33.00;;;;;8.75;58.39;100890.91;4997420;28;45313;-76
2022/12/04 09:59:09;;;;;;;;;25.50;25.50;;;;;9.14;58.31;100945.75;4997515;28;45493;-78
2022/12/04 10:01:48;;;;;;;;;39.75;35.00;;;;;9.29;58.28;100946.78;4998019;28;45305;-77
2022/12/04 10:04:15;;;;;;;;;39.75;36.00;;;;;9.34;57.58;100919.91;4979368;28;47311;-76
2022/12/04 10:06:52;;;;;;;;;49.50;38.75;;;;;9.29;57.63;100933.47;4997068;28;45256;-75
2022/12/04 10:09:30;;;;;;;;;37.00;35.25;;;;;9.23;57.85;100931.97;4997307;28;45285;-75
2022/12/04 10:12:02;;;;;;;;;33.25;30.75;;;;;9.04;58.52;100929.38;4976974;28;45483;-77
2022/12/04 10:14:43;;;;;;;;;34.00;32.25;;;;;9.11;58.31;100915.75;4977752;28;45530;-75
2022/12/04 10:17:30;;;;;;;;;39.75;32.50;;;;;9.29;58.25;100928.13;4977463;28;45348;-76
2022/12/04 10:20:20;;;;;;;;;40.75;38.00;;;;;9.25;58.53;100931.91;4992485;28;45473;-76
2022/12/04 10:23:03;;;;;;;;;40.75;36.25;;;;;9.06;58.45;100927.50;4997488;28;45457;-76
2022/12/04 10:25:31;;;;;;;;;45.25;39.25;;;;;9.09;58.53;100915.84;4997192;28;45343;-76
2022/12/04 10:28:05;;;;;;;;;35.75;33.25;;;;;8.92;58.55;100922.88;4997253;28;45387;-75
2022/12/04 10:30:35;;;;;;;;;47.25;38.00;;;;;8.89;59.09;100882.25;4997542;28;45462;-75
2022/12/04 10:33:26;;;;;;;;;47.25;39.00;;;;;9.05;58.31;100912.44;4997428;28;45539;-77
2022/12/04 10:35:53;;;;;;;;;41.50;37.50;;;;;9.26;58.23;100897.22;4982228;28;45578;-77
2022/12/04 10:38:27;;;;;;;;;30.25;27.25;;;;;9.26;58.23;100918.50;4996612;28;45411;-76
2022/12/04 10:40:59;;;;;;;;;47.75;37.75;;;;;9.17;58.37;100879.03;4997167;28;45430;-76
2022/12/04 10:43:39;;;;;;;;;39.25;35.00;;;;;9.53;57.61;100914.50;4996996;28;45437;-76
2022/12/04 10:46:06;;;;;;;;;36.25;32.50;;;;;9.60;57.86;100906.09;4996864;28;47276;-77
2022/12/04 10:48:36;;;;;;;;;37.25;33.25;;;;;9.52;58.15;100908.31;4996971;28;45395;-77
2022/12/04 10:51:02;;;;;;;;;46.75;37.00;;;;;9.18;57.97;100879.91;4979082;28;45414;-76
2022/12/04 10:53:35;;;;;;;;;30.50;28.25;;;;;9.06;58.37;100868.09;4993566;28;45419;-76
2022/12/04 10:56:27;;;;;;;;;38.75;32.75;;;;;9.27;57.79;100874.09;4990607;28;47615;-76
2022/12/04 10:58:55;;;;;;;;;40.75;38.25;;;;;9.64;57.77;100912.13;4993236;28;45388;-75
2022/12/04 11:01:21;;;;;;;;;43.25;38.00;;;;;9.53;57.47;100911.84;4995393;28;45345;-76
2022/12/04 11:03:56;;;;;;;;;42.25;35.50;;;;;9.62;57.85;100923.81;4995151;28;45406;-77
2022/12/04 11:06:25;;;;;;;;;45.00;36.00;;;;;9.60;57.31;100914.09;4995071;28;48527;-75
2022/12/04 11:08:52;;;;;;;;;39.75;36.00;;;;;9.83;57.77;100916.50;4996365;28;45329;-75
2022/12/04 11:11:24;;;;;;;;;42.75;37.00;;;;;9.80;57.28;100906.84;4996886;28;45515;-78
2022/12/04 11:14:19;;;;;;;;;42.00;37.50;;;;;9.73;57.27;100903.66;4996886;28;45300;-77
2022/12/04 11:16:58;;;;;;;;;54.75;43.75;;;;;9.57;57.95;100900.09;4995879;28;45386;-75
2022/12/04 11:19:26;;;;;;;;;35.50;33.50;;;;;9.21;57.63;100802.56;4996576;28;45738;-76
2022/12/04 11:21:54;;;;;;;;;48.00;36.25;;;;;9.36;57.84;100860.31;4996398;28;45392;-75
2022/12/04 11:24:41;;;;;;;;;43.25;36.50;;;;;9.82;57.07;100898.78;4995638;28;45367;-77
2022/12/04 11:27:18;;;;;;;;;43.75;36.00;;;;;10.11;57.10;100915.84;4996338;28;46101;-75
2022/12/04 11:29:45;;;;;;;;;52.75;42.00;;;;;9.96;56.45;100912.22;4996412;28;45400;-75
2022/12/04 11:32:23;;;;;;;;;44.75;35.75;;;;;9.53;57.33;100871.91;4997147;28;45966;-75
2022/12/04 11:34:51;;;;;;;;;39.50;36.25;;;;;9.65;57.45;100905.00;4963779;28;45415;-76
2022/12/04 11:37:32;;;;;;;;;40.25;36.00;;;;;9.99;57.21;100901.38;4997494;28;45459;-76
2022/12/04 11:39:59;;;;;;;;;43.00;38.25;;;;;9.88;56.83;100890.44;4999152;28;45412;-77
2022/12/04 11:42:28;;;;;;;;;50.50;43.00;;;;;9.64;57.36;100905.94;5000394;28;45373;-75